sensor_id;sensor_type;location;lat;lon;timestamp;P1;durP1;ratioP1;P2;durP2;ratioP2
21036;SDS011;10677;50.942;4.028;2023-02-19T00:01:27;18.27;;;10.55;;
21036;SDS011;10677;50.942;4.028;2023-02-19T00:04:05;15.82;;;9.38;;
21036;SDS011;10677;50.942;4.028;2023-02-19T00:06:37;15.65;;;9.00;;
21036;SDS011;10677;50.942;4.028;2023-02-19T00:09:03;14.35;;;8.95;;
21036;SDS011;10677;50.942;4.028;2023-02-19T00:11:30;14.27;;;8.35;;
21036;SDS011;10677;50.942;4.028;2023-02-19T00:13:58;11.80;;;7.10;;
21036;SDS011;10677;50.942;4.028;2023-02-19T00:16:26;15.65;;;8.27;;
21036;SDS011;10677;50.942;4.028;2023-02-19T00:18:53;17.08;;;9.25;;
21036;SDS011;10677;50.942;4.028;2023-02-19T00:21:20;13.65;;;7.85;;
21036;SDS011;10677;50.942;4.028;2023-02-19T00:23:50;16.00;;;8.52;;
21036;SDS011;10677;50.942;4.028;2023-02-19T00:26:17;11.85;;;7.20;;
21036;SDS011;10677;50.942;4.028;2023-02-19T00:28:43;14.00;;;7.65;;
21036;SDS011;10677;50.942;4.028;2023-02-19T00:33:49;15.98;;;6.85;;
21036;SDS011;10677;50.942;4.028;2023-02-19T00:36:17;15.23;;;6.82;;
21036;SDS011;10677;50.942;4.028;2023-02-19T00:38:43;12.32;;;6.05;;
21036;SDS011;10677;50.942;4.028;2023-02-19T00:41:10;12.70;;;5.82;;
21036;SDS011;10677;50.942;4.028;2023-02-19T00:43:56;12.55;;;6.22;;
21036;SDS011;10677;50.942;4.028;2023-02-19T00:48:51;13.93;;;5.45;;
21036;SDS011;10677;50.942;4.028;2023-02-19T00:51:17;12.95;;;5.40;;
21036;SDS011;10677;50.942;4.028;2023-02-19T00:53:44;9.98;;;4.72;;
21036;SDS011;10677;50.942;4.028;2023-02-19T00:56:10;14.60;;;5.32;;
21036;SDS011;10677;50.942;4.028;2023-02-19T00:58:36;11.48;;;4.53;;
21036;SDS011;10677;50.942;4.028;2023-02-19T01:01:03;14.18;;;4.82;;
21036;SDS011;10677;50.942;4.028;2023-02-19T01:03:32;12.60;;;4.57;;
21036;SDS011;10677;50.942;4.028;2023-02-19T01:05:58;12.60;;;4.85;;
21036;SDS011;10677;50.942;4.028;2023-02-19T01:08:24;8.05;;;4.05;;
21036;SDS011;10677;50.942;4.028;2023-02-19T01:10:51;9.95;;;3.38;;
21036;SDS011;10677;50.942;4.028;2023-02-19T01:13:17;13.75;;;3.65;;
21036;SDS011;10677;50.942;4.028;2023-02-19T01:15:43;10.55;;;3.60;;
21036;SDS011;10677;50.942;4.028;2023-02-19T01:18:09;10.48;;;3.35;;
21036;SDS011;10677;50.942;4.028;2023-02-19T01:20:37;13.45;;;3.72;;
21036;SDS011;10677;50.942;4.028;2023-02-19T01:23:03;11.45;;;3.05;;
21036;SDS011;10677;50.942;4.028;2023-02-19T01:25:30;14.15;;;3.35;;
21036;SDS011;10677;50.942;4.028;2023-02-19T01:27:55;12.32;;;3.35;;
21036;SDS011;10677;50.942;4.028;2023-02-19T01:30:21;10.00;;;3.13;;
21036;SDS011;10677;50.942;4.028;2023-02-19T01:32:47;11.27;;;2.85;;
21036;SDS011;10677;50.942;4.028;2023-02-19T01:35:12;10.10;;;3.00;;
21036;SDS011;10677;50.942;4.028;2023-02-19T01:37:38;12.57;;;3.30;;
21036;SDS011;10677;50.942;4.028;2023-02-19T01:40:04;10.15;;;2.80;;
21036;SDS011;10677;50.942;4.028;2023-02-19T01:42:31;9.43;;;3.10;;
21036;SDS011;10677;50.942;4.028;2023-02-19T01:47:57;8.68;;;2.63;;
21036;SDS011;10677;50.942;4.028;2023-02-19T01:50:38;11.05;;;2.60;;
21036;SDS011;10677;50.942;4.028;2023-02-19T01:53:08;9.65;;;2.42;;
21036;SDS011;10677;50.942;4.028;2023-02-19T01:55:36;10.60;;;2.40;;
21036;SDS011;10677;50.942;4.028;2023-02-19T01:58:03;10.82;;;2.63;;
21036;SDS011;10677;50.942;4.028;2023-02-19T02:00:29;11.90;;;2.85;;
21036;SDS011;10677;50.942;4.028;2023-02-19T02:02:57;11.43;;;2.83;;
21036;SDS011;10677;50.942;4.028;2023-02-19T02:05:31;13.23;;;3.65;;
21036;SDS011;10677;50.942;4.028;2023-02-19T02:08:04;8.32;;;2.38;;
21036;SDS011;10677;50.942;4.028;2023-02-19T02:10:49;14.50;;;3.05;;
21036;SDS011;10677;50.942;4.028;2023-02-19T02:13:15;9.65;;;2.00;;
21036;SDS011;10677;50.942;4.028;2023-02-19T02:15:47;13.65;;;2.28;;
21036;SDS011;10677;50.942;4.028;2023-02-19T02:18:35;13.27;;;2.60;;
21036;SDS011;10677;50.942;4.028;2023-02-19T02:24:20;8.27;;;2.33;;
21036;SDS011;10677;50.942;4.028;2023-02-19T02:35:17;6.80;;;1.98;;
21036;SDS011;10677;50.942;4.028;2023-02-19T02:37:49;10.13;;;2.38;;
21036;SDS011;10677;50.942;4.028;2023-02-19T02:40:17;11.18;;;2.70;;
21036;SDS011;10677;50.942;4.028;2023-02-19T02:42:44;6.97;;;2.42;;
21036;SDS011;10677;50.942;4.028;2023-02-19T02:45:22;13.63;;;2.33;;
21036;SDS011;10677;50.942;4.028;2023-02-19T02:48:08;12.27;;;2.22;;
21036;SDS011;10677;50.942;4.028;2023-02-19T02:53:11;7.93;;;1.88;;
21036;SDS011;10677;50.942;4.028;2023-02-19T02:56:25;10.52;;;2.67;;
21036;SDS011;10677;50.942;4.028;2023-02-19T02:58:52;12.52;;;2.40;;
21036;SDS011;10677;50.942;4.028;2023-02-19T03:04:14;15.20;;;2.55;;
21036;SDS011;10677;50.942;4.028;2023-02-19T03:07:27;11.25;;;2.10;;
21036;SDS011;10677;50.942;4.028;2023-02-19T03:09:57;12.57;;;2.72;;
21036;SDS011;10677;50.942;4.028;2023-02-19T03:12:25;14.32;;;2.45;;
21036;SDS011;10677;50.942;4.028;2023-02-19T03:15:13;5.95;;;1.85;;
21036;SDS011;10677;50.942;4.028;2023-02-19T03:18:02;11.88;;;2.20;;
21036;SDS011;10677;50.942;4.028;2023-02-19T03:20:50;5.68;;;1.65;;
21036;SDS011;10677;50.942;4.028;2023-02-19T03:23:19;14.00;;;3.00;;
21036;SDS011;10677;50.942;4.028;2023-02-19T03:26:07;9.70;;;2.03;;
21036;SDS011;10677;50.942;4.028;2023-02-19T03:28:34;7.95;;;1.70;;
21036;SDS011;10677;50.942;4.028;2023-02-19T03:31:22;11.70;;;2.15;;
21036;SDS011;10677;50.942;4.028;2023-02-19T03:33:52;15.32;;;2.22;;
21036;SDS011;10677;50.942;4.028;2023-02-19T03:36:20;11.80;;;1.67;;
21036;SDS011;10677;50.942;4.028;2023-02-19T03:38:53;12.68;;;1.88;;
21036;SDS011;10677;50.942;4.028;2023-02-19T03:44:19;12.88;;;3.15;;
21036;SDS011;10677;50.942;4.028;2023-02-19T03:52:38;12.68;;;2.50;;
21036;SDS011;10677;50.942;4.028;2023-02-19T03:55:12;14.35;;;3.38;;
21036;SDS011;10677;50.942;4.028;2023-02-19T03:57:51;13.13;;;3.00;;
21036;SDS011;10677;50.942;4.028;2023-02-19T04:00:42;11.18;;;2.53;;
21036;SDS011;10677;50.942;4.028;2023-02-19T04:06:04;17.98;;;3.70;;
21036;SDS011;10677;50.942;4.028;2023-02-19T04:08:36;13.85;;;2.45;;
21036;SDS011;10677;50.942;4.028;2023-02-19T04:11:04;13.50;;;2.63;;
21036;SDS011;10677;50.942;4.028;2023-02-19T04:13:39;12.07;;;2.55;;
21036;SDS011;10677;50.942;4.028;2023-02-19T04:16:12;14.13;;;2.55;;
21036;SDS011;10677;50.942;4.028;2023-02-19T04:18:46;11.90;;;2.95;;
21036;SDS011;10677;50.942;4.028;2023-02-19T04:21:15;13.73;;;2.97;;
21036;SDS011;10677;50.942;4.028;2023-02-19T04:23:43;17.30;;;3.10;;
21036;SDS011;10677;50.942;4.028;2023-02-19T04:26:09;10.95;;;2.20;;
21036;SDS011;10677;50.942;4.028;2023-02-19T04:28:37;17.50;;;2.80;;
21036;SDS011;10677;50.942;4.028;2023-02-19T04:31:03;11.73;;;2.40;;
21036;SDS011;10677;50.942;4.028;2023-02-19T04:33:29;14.48;;;2.55;;
21036;SDS011;10677;50.942;4.028;2023-02-19T04:35:55;14.18;;;2.40;;
21036;SDS011;10677;50.942;4.028;2023-02-19T04:38:20;19.77;;;2.70;;
21036;SDS011;10677;50.942;4.028;2023-02-19T04:40:46;10.85;;;2.22;;
21036;SDS011;10677;50.942;4.028;2023-02-19T04:43:12;16.27;;;2.35;;
21036;SDS011;10677;50.942;4.028;2023-02-19T04:45:38;13.85;;;2.67;;
21036;SDS011;10677;50.942;4.028;2023-02-19T04:48:04;15.77;;;3.00;;
21036;SDS011;10677;50.942;4.028;2023-02-19T04:50:30;15.02;;;2.97;;
21036;SDS011;10677;50.942;4.028;2023-02-19T04:52:56;13.75;;;2.05;;
21036;SDS011;10677;50.942;4.028;2023-02-19T04:55:21;22.08;;;4.28;;
21036;SDS011;10677;50.942;4.028;2023-02-19T04:57:47;16.23;;;2.65;;
21036;SDS011;10677;50.942;4.028;2023-02-19T05:00:13;15.10;;;3.50;;
21036;SDS011;10677;50.942;4.028;2023-02-19T05:02:38;20.52;;;3.13;;
21036;SDS011;10677;50.942;4.028;2023-02-19T05:05:04;12.95;;;2.33;;
21036;SDS011;10677;50.942;4.028;2023-02-19T05:07:30;17.45;;;3.08;;
21036;SDS011;10677;50.942;4.028;2023-02-19T05:09:56;11.90;;;2.50;;
21036;SDS011;10677;50.942;4.028;2023-02-19T05:12:23;15.38;;;2.85;;
21036;SDS011;10677;50.942;4.028;2023-02-19T05:14:49;11.10;;;2.40;;
21036;SDS011;10677;50.942;4.028;2023-02-19T05:17:15;13.65;;;2.60;;
21036;SDS011;10677;50.942;4.028;2023-02-19T05:19:41;14.60;;;3.05;;
21036;SDS011;10677;50.942;4.028;2023-02-19T05:22:06;15.25;;;2.33;;
21036;SDS011;10677;50.942;4.028;2023-02-19T05:24:32;14.15;;;2.33;;
21036;SDS011;10677;50.942;4.028;2023-02-19T05:26:58;12.77;;;2.17;;
21036;SDS011;10677;50.942;4.028;2023-02-19T05:29:23;14.70;;;2.38;;
21036;SDS011;10677;50.942;4.028;2023-02-19T05:31:49;10.48;;;2.33;;
21036;SDS011;10677;50.942;4.028;2023-02-19T05:34:15;12.63;;;3.00;;
21036;SDS011;10677;50.942;4.028;2023-02-19T05:36:40;14.63;;;2.28;;
21036;SDS011;10677;50.942;4.028;2023-02-19T05:39:06;19.05;;;2.97;;
21036;SDS011;10677;50.942;4.028;2023-02-19T05:41:33;12.50;;;2.50;;
21036;SDS011;10677;50.942;4.028;2023-02-19T05:43:59;16.67;;;2.70;;
21036;SDS011;10677;50.942;4.028;2023-02-19T05:46:25;15.35;;;2.60;;
21036;SDS011;10677;50.942;4.028;2023-02-19T05:48:54;15.40;;;2.72;;
21036;SDS011;10677;50.942;4.028;2023-02-19T05:51:21;9.38;;;2.65;;
21036;SDS011;10677;50.942;4.028;2023-02-19T05:53:49;13.15;;;2.25;;
21036;SDS011;10677;50.942;4.028;2023-02-19T05:58:50;15.80;;;2.50;;
21036;SDS011;10677;50.942;4.028;2023-02-19T06:01:17;13.77;;;2.67;;
21036;SDS011;10677;50.942;4.028;2023-02-19T06:03:44;13.55;;;2.28;;
21036;SDS011;10677;50.942;4.028;2023-02-19T06:06:14;13.50;;;2.78;;
21036;SDS011;10677;50.942;4.028;2023-02-19T06:08:41;13.18;;;2.08;;
21036;SDS011;10677;50.942;4.028;2023-02-19T06:11:07;17.33;;;2.60;;
21036;SDS011;10677;50.942;4.028;2023-02-19T06:13:32;11.75;;;2.33;;
21036;SDS011;10677;50.942;4.028;2023-02-19T06:15:58;11.95;;;2.30;;
21036;SDS011;10677;50.942;4.028;2023-02-19T06:18:24;12.60;;;2.38;;
21036;SDS011;10677;50.942;4.028;2023-02-19T06:20:50;15.15;;;2.85;;
21036;SDS011;10677;50.942;4.028;2023-02-19T06:23:15;16.73;;;2.10;;
21036;SDS011;10677;50.942;4.028;2023-02-19T06:25:41;14.60;;;3.42;;
21036;SDS011;10677;50.942;4.028;2023-02-19T06:28:06;14.88;;;2.63;;
21036;SDS011;10677;50.942;4.028;2023-02-19T06:30:35;10.45;;;2.72;;
21036;SDS011;10677;50.942;4.028;2023-02-19T06:33:00;14.50;;;2.40;;
21036;SDS011;10677;50.942;4.028;2023-02-19T06:35:26;12.18;;;2.47;;
21036;SDS011;10677;50.942;4.028;2023-02-19T06:37:52;12.32;;;2.28;;
21036;SDS011;10677;50.942;4.028;2023-02-19T06:40:17;12.35;;;2.53;;
21036;SDS011;10677;50.942;4.028;2023-02-19T06:42:43;14.63;;;2.40;;
21036;SDS011;10677;50.942;4.028;2023-02-19T06:45:08;15.43;;;2.83;;
21036;SDS011;10677;50.942;4.028;2023-02-19T06:47:34;12.52;;;2.15;;
21036;SDS011;10677;50.942;4.028;2023-02-19T06:50:00;11.65;;;2.88;;
21036;SDS011;10677;50.942;4.028;2023-02-19T06:52:26;13.63;;;2.08;;
21036;SDS011;10677;50.942;4.028;2023-02-19T06:54:52;13.70;;;2.33;;
21036;SDS011;10677;50.942;4.028;2023-02-19T06:57:18;13.45;;;2.65;;
21036;SDS011;10677;50.942;4.028;2023-02-19T06:59:44;12.15;;;2.65;;
21036;SDS011;10677;50.942;4.028;2023-02-19T07:02:10;11.35;;;2.10;;
21036;SDS011;10677;50.942;4.028;2023-02-19T07:04:36;10.68;;;2.83;;
21036;SDS011;10677;50.942;4.028;2023-02-19T07:07:03;14.80;;;2.65;;
21036;SDS011;10677;50.942;4.028;2023-02-19T07:09:29;11.85;;;2.10;;
21036;SDS011;10677;50.942;4.028;2023-02-19T07:11:54;14.60;;;2.28;;
21036;SDS011;10677;50.942;4.028;2023-02-19T07:14:20;11.82;;;2.30;;
21036;SDS011;10677;50.942;4.028;2023-02-19T07:16:46;9.63;;;1.98;;
21036;SDS011;10677;50.942;4.028;2023-02-19T07:19:13;15.13;;;2.60;;
21036;SDS011;10677;50.942;4.028;2023-02-19T07:21:39;11.32;;;2.42;;
21036;SDS011;10677;50.942;4.028;2023-02-19T07:24:06;10.32;;;2.22;;
21036;SDS011;10677;50.942;4.028;2023-02-19T07:26:33;11.73;;;1.98;;
21036;SDS011;10677;50.942;4.028;2023-02-19T07:28:58;13.77;;;2.28;;
21036;SDS011;10677;50.942;4.028;2023-02-19T07:31:24;15.80;;;2.38;;
21036;SDS011;10677;50.942;4.028;2023-02-19T07:33:50;14.63;;;2.45;;
21036;SDS011;10677;50.942;4.028;2023-02-19T07:36:16;13.55;;;2.47;;
21036;SDS011;10677;50.942;4.028;2023-02-19T07:38:43;8.27;;;2.03;;
21036;SDS011;10677;50.942;4.028;2023-02-19T07:41:09;11.43;;;2.55;;
21036;SDS011;10677;50.942;4.028;2023-02-19T07:43:35;12.98;;;2.40;;
21036;SDS011;10677;50.942;4.028;2023-02-19T07:46:02;7.93;;;1.90;;
21036;SDS011;10677;50.942;4.028;2023-02-19T07:48:29;7.47;;;2.00;;
21036;SDS011;10677;50.942;4.028;2023-02-19T07:50:55;10.68;;;2.00;;
21036;SDS011;10677;50.942;4.028;2023-02-19T07:53:23;17.35;;;3.75;;
21036;SDS011;10677;50.942;4.028;2023-02-19T07:55:50;10.10;;;2.58;;
21036;SDS011;10677;50.942;4.028;2023-02-19T07:58:16;13.55;;;2.30;;
21036;SDS011;10677;50.942;4.028;2023-02-19T08:00:42;13.57;;;3.13;;
21036;SDS011;10677;50.942;4.028;2023-02-19T08:03:07;10.32;;;2.58;;
21036;SDS011;10677;50.942;4.028;2023-02-19T08:05:36;15.05;;;2.53;;
21036;SDS011;10677;50.942;4.028;2023-02-19T08:08:06;11.45;;;2.33;;
21036;SDS011;10677;50.942;4.028;2023-02-19T08:10:33;13.80;;;3.25;;
21036;SDS011;10677;50.942;4.028;2023-02-19T08:13:17;12.75;;;2.30;;
21036;SDS011;10677;50.942;4.028;2023-02-19T08:15:47;10.10;;;2.90;;
21036;SDS011;10677;50.942;4.028;2023-02-19T08:18:18;10.95;;;2.60;;
21036;SDS011;10677;50.942;4.028;2023-02-19T08:20:46;12.63;;;2.70;;
21036;SDS011;10677;50.942;4.028;2023-02-19T08:23:11;11.45;;;2.70;;
21036;SDS011;10677;50.942;4.028;2023-02-19T08:25:38;18.77;;;2.50;;
21036;SDS011;10677;50.942;4.028;2023-02-19T08:28:07;11.60;;;2.78;;
21036;SDS011;10677;50.942;4.028;2023-02-19T08:30:34;10.98;;;2.40;;
21036;SDS011;10677;50.942;4.028;2023-02-19T08:33:00;14.88;;;2.33;;
21036;SDS011;10677;50.942;4.028;2023-02-19T08:35:26;14.35;;;3.05;;
21036;SDS011;10677;50.942;4.028;2023-02-19T08:37:56;11.93;;;2.70;;
21036;SDS011;10677;50.942;4.028;2023-02-19T08:40:24;10.43;;;2.42;;
21036;SDS011;10677;50.942;4.028;2023-02-19T08:42:50;11.77;;;2.33;;
21036;SDS011;10677;50.942;4.028;2023-02-19T08:45:16;14.85;;;2.72;;
21036;SDS011;10677;50.942;4.028;2023-02-19T08:47:42;10.50;;;2.25;;
21036;SDS011;10677;50.942;4.028;2023-02-19T08:50:08;12.57;;;2.42;;
21036;SDS011;10677;50.942;4.028;2023-02-19T08:52:34;13.18;;;2.45;;
21036;SDS011;10677;50.942;4.028;2023-02-19T08:55:02;12.98;;;3.67;;
21036;SDS011;10677;50.942;4.028;2023-02-19T08:57:29;9.10;;;1.88;;
21036;SDS011;10677;50.942;4.028;2023-02-19T08:59:55;12.18;;;2.42;;
21036;SDS011;10677;50.942;4.028;2023-02-19T09:02:24;12.80;;;2.47;;
21036;SDS011;10677;50.942;4.028;2023-02-19T09:04:50;8.88;;;2.35;;
21036;SDS011;10677;50.942;4.028;2023-02-19T09:07:18;10.55;;;2.40;;
21036;SDS011;10677;50.942;4.028;2023-02-19T09:09:44;8.75;;;2.03;;
21036;SDS011;10677;50.942;4.028;2023-02-19T09:12:10;12.40;;;2.80;;
21036;SDS011;10677;50.942;4.028;2023-02-19T09:14:37;16.08;;;2.35;;
21036;SDS011;10677;50.942;4.028;2023-02-19T09:17:04;8.45;;;2.10;;
21036;SDS011;10677;50.942;4.028;2023-02-19T09:19:30;9.93;;;2.30;;
21036;SDS011;10677;50.942;4.028;2023-02-19T09:21:56;11.45;;;2.83;;
21036;SDS011;10677;50.942;4.028;2023-02-19T09:24:24;14.45;;;2.38;;
21036;SDS011;10677;50.942;4.028;2023-02-19T09:26:50;11.48;;;2.20;;
21036;SDS011;10677;50.942;4.028;2023-02-19T09:29:17;13.30;;;2.42;;
21036;SDS011;10677;50.942;4.028;2023-02-19T09:31:44;8.18;;;2.30;;
21036;SDS011;10677;50.942;4.028;2023-02-19T09:34:10;16.02;;;3.00;;
21036;SDS011;10677;50.942;4.028;2023-02-19T09:36:36;11.13;;;1.92;;
21036;SDS011;10677;50.942;4.028;2023-02-19T09:39:03;14.27;;;2.95;;
21036;SDS011;10677;50.942;4.028;2023-02-19T09:44:14;8.23;;;2.40;;
21036;SDS011;10677;50.942;4.028;2023-02-19T09:46:53;12.00;;;2.72;;
21036;SDS011;10677;50.942;4.028;2023-02-19T09:49:20;12.68;;;2.47;;
21036;SDS011;10677;50.942;4.028;2023-02-19T09:51:51;11.07;;;2.05;;
21036;SDS011;10677;50.942;4.028;2023-02-19T09:54:26;11.27;;;2.42;;
21036;SDS011;10677;50.942;4.028;2023-02-19T09:56:55;11.40;;;2.10;;
21036;SDS011;10677;50.942;4.028;2023-02-19T09:59:25;10.35;;;2.30;;
21036;SDS011;10677;50.942;4.028;2023-02-19T10:01:57;12.73;;;2.63;;
21036;SDS011;10677;50.942;4.028;2023-02-19T10:04:28;9.02;;;2.70;;
21036;SDS011;10677;50.942;4.028;2023-02-19T10:06:53;10.48;;;2.33;;
21036;SDS011;10677;50.942;4.028;2023-02-19T10:09:28;12.35;;;2.58;;
21036;SDS011;10677;50.942;4.028;2023-02-19T10:11:54;13.25;;;2.33;;
21036;SDS011;10677;50.942;4.028;2023-02-19T10:14:29;7.65;;;2.28;;
21036;SDS011;10677;50.942;4.028;2023-02-19T10:17:04;14.90;;;2.92;;
21036;SDS011;10677;50.942;4.028;2023-02-19T10:19:31;10.30;;;2.60;;
21036;SDS011;10677;50.942;4.028;2023-02-19T10:21:58;9.70;;;2.30;;
21036;SDS011;10677;50.942;4.028;2023-02-19T10:24:27;11.00;;;2.65;;
21036;SDS011;10677;50.942;4.028;2023-02-19T10:26:54;8.07;;;2.25;;
21036;SDS011;10677;50.942;4.028;2023-02-19T10:29:23;10.63;;;2.88;;
21036;SDS011;10677;50.942;4.028;2023-02-19T10:32:07;12.45;;;2.90;;
21036;SDS011;10677;50.942;4.028;2023-02-19T10:35:34;13.50;;;2.00;;
21036;SDS011;10677;50.942;4.028;2023-02-19T10:37:42;13.48;;;2.70;;
21036;SDS011;10677;50.942;4.028;2023-02-19T10:40:14;12.50;;;2.72;;
21036;SDS011;10677;50.942;4.028;2023-02-19T10:42:48;6.40;;;2.30;;
21036;SDS011;10677;50.942;4.028;2023-02-19T10:45:18;11.32;;;2.45;;
21036;SDS011;10677;50.942;4.028;2023-02-19T10:47:51;9.25;;;2.17;;
21036;SDS011;10677;50.942;4.028;2023-02-19T10:50:35;11.25;;;2.10;;
21036;SDS011;10677;50.942;4.028;2023-02-19T10:53:03;9.68;;;2.05;;
21036;SDS011;10677;50.942;4.028;2023-02-19T10:55:30;7.35;;;2.42;;
21036;SDS011;10677;50.942;4.028;2023-02-19T10:58:14;10.43;;;2.30;;
21036;SDS011;10677;50.942;4.028;2023-02-19T11:01:08;8.52;;;2.35;;
21036;SDS011;10677;50.942;4.028;2023-02-19T11:03:35;11.60;;;2.55;;
21036;SDS011;10677;50.942;4.028;2023-02-19T11:06:03;6.88;;;2.33;;
21036;SDS011;10677;50.942;4.028;2023-02-19T11:08:43;11.05;;;2.40;;
21036;SDS011;10677;50.942;4.028;2023-02-19T11:11:23;10.80;;;2.60;;
21036;SDS011;10677;50.942;4.028;2023-02-19T11:13:54;7.10;;;2.17;;
21036;SDS011;10677;50.942;4.028;2023-02-19T11:16:35;9.80;;;2.60;;
21036;SDS011;10677;50.942;4.028;2023-02-19T11:19:28;8.48;;;2.60;;
21036;SDS011;10677;50.942;4.028;2023-02-19T11:21:56;7.00;;;2.20;;
21036;SDS011;10677;50.942;4.028;2023-02-19T11:26:59;7.38;;;2.38;;
21036;SDS011;10677;50.942;4.028;2023-02-19T11:29:28;8.10;;;2.10;;
21036;SDS011;10677;50.942;4.028;2023-02-19T11:32:11;6.72;;;2.35;;
21036;SDS011;10677;50.942;4.028;2023-02-19T11:34:43;7.32;;;2.20;;
21036;SDS011;10677;50.942;4.028;2023-02-19T11:37:12;8.93;;;2.95;;
21036;SDS011;10677;50.942;4.028;2023-02-19T11:39:43;7.00;;;2.22;;
21036;SDS011;10677;50.942;4.028;2023-02-19T11:45:12;6.07;;;2.05;;
21036;SDS011;10677;50.942;4.028;2023-02-19T12:01:14;4.18;;;1.40;;
21036;SDS011;10677;50.942;4.028;2023-02-19T12:06:58;6.53;;;1.80;;
21036;SDS011;10677;50.942;4.028;2023-02-19T12:09:42;6.93;;;1.77;;
21036;SDS011;10677;50.942;4.028;2023-02-19T12:12:47;8.18;;;1.52;;
21036;SDS011;10677;50.942;4.028;2023-02-19T12:15:34;5.43;;;1.67;;
21036;SDS011;10677;50.942;4.028;2023-02-19T12:18:25;5.05;;;1.63;;
21036;SDS011;10677;50.942;4.028;2023-02-19T12:24:05;10.57;;;2.00;;
21036;SDS011;10677;50.942;4.028;2023-02-19T12:36:56;9.10;;;2.42;;
21036;SDS011;10677;50.942;4.028;2023-02-19T12:45:41;9.95;;;2.63;;
21036;SDS011;10677;50.942;4.028;2023-02-19T12:48:15;6.90;;;2.35;;
21036;SDS011;10677;50.942;4.028;2023-02-19T12:50:43;6.45;;;2.60;;
21036;SDS011;10677;50.942;4.028;2023-02-19T12:53:34;9.13;;;2.30;;
21036;SDS011;10677;50.942;4.028;2023-02-19T12:56:04;8.48;;;3.03;;
21036;SDS011;10677;50.942;4.028;2023-02-19T12:59:04;5.60;;;2.45;;
21036;SDS011;10677;50.942;4.028;2023-02-19T13:02:13;9.90;;;2.38;;
21036;SDS011;10677;50.942;4.028;2023-02-19T13:07:20;8.60;;;2.28;;
21036;SDS011;10677;50.942;4.028;2023-02-19T13:10:26;9.77;;;2.45;;
21036;SDS011;10677;50.942;4.028;2023-02-19T13:12:57;8.05;;;2.38;;
21036;SDS011;10677;50.942;4.028;2023-02-19T13:15:45;5.35;;;2.22;;
21036;SDS011;10677;50.942;4.028;2023-02-19T13:18:18;6.15;;;2.53;;
21036;SDS011;10677;50.942;4.028;2023-02-19T13:20:48;9.70;;;2.33;;
21036;SDS011;10677;50.942;4.028;2023-02-19T13:23:20;7.10;;;2.22;;
21036;SDS011;10677;50.942;4.028;2023-02-19T13:34:37;6.10;;;1.60;;
21036;SDS011;10677;50.942;4.028;2023-02-19T13:37:11;4.97;;;1.63;;
21036;SDS011;10677;50.942;4.028;2023-02-19T13:39:48;5.65;;;2.10;;
21036;SDS011;10677;50.942;4.028;2023-02-19T13:42:30;4.78;;;2.22;;
21036;SDS011;10677;50.942;4.028;2023-02-19T13:45:04;6.53;;;2.47;;
21036;SDS011;10677;50.942;4.028;2023-02-19T13:47:47;6.15;;;1.65;;
21036;SDS011;10677;50.942;4.028;2023-02-19T13:50:24;8.00;;;2.10;;
21036;SDS011;10677;50.942;4.028;2023-02-19T14:14:48;3.33;;;1.80;;
21036;SDS011;10677;50.942;4.028;2023-02-19T14:17:36;7.82;;;2.30;;
21036;SDS011;10677;50.942;4.028;2023-02-19T14:23:00;6.93;;;2.20;;
21036;SDS011;10677;50.942;4.028;2023-02-19T14:25:40;8.23;;;3.00;;
21036;SDS011;10677;50.942;4.028;2023-02-19T14:30:50;10.55;;;2.85;;
21036;SDS011;10677;50.942;4.028;2023-02-19T14:33:29;8.00;;;2.90;;
21036;SDS011;10677;50.942;4.028;2023-02-19T14:41:31;6.20;;;2.03;;
21036;SDS011;10677;50.942;4.028;2023-02-19T14:44:01;5.80;;;2.42;;
21036;SDS011;10677;50.942;4.028;2023-02-19T14:46:33;5.38;;;2.55;;
21036;SDS011;10677;50.942;4.028;2023-02-19T14:49:06;4.90;;;2.47;;
21036;SDS011;10677;50.942;4.028;2023-02-19T14:51:43;4.18;;;2.30;;
21036;SDS011;10677;50.942;4.028;2023-02-19T14:54:15;6.10;;;2.42;;
21036;SDS011;10677;50.942;4.028;2023-02-19T14:56:45;8.05;;;2.70;;
21036;SDS011;10677;50.942;4.028;2023-02-19T15:02:31;4.75;;;2.80;;
21036;SDS011;10677;50.942;4.028;2023-02-19T15:04:40;5.80;;;2.42;;
21036;SDS011;10677;50.942;4.028;2023-02-19T15:07:06;6.95;;;2.60;;
21036;SDS011;10677;50.942;4.028;2023-02-19T15:09:45;10.02;;;2.90;;
21036;SDS011;10677;50.942;4.028;2023-02-19T15:12:58;5.22;;;2.67;;
21036;SDS011;10677;50.942;4.028;2023-02-19T15:15:16;6.10;;;2.50;;
21036;SDS011;10677;50.942;4.028;2023-02-19T15:17:46;8.43;;;2.70;;
21036;SDS011;10677;50.942;4.028;2023-02-19T15:20:15;8.40;;;2.70;;
21036;SDS011;10677;50.942;4.028;2023-02-19T15:22:48;7.22;;;2.38;;
21036;SDS011;10677;50.942;4.028;2023-02-19T15:25:20;6.22;;;2.75;;
21036;SDS011;10677;50.942;4.028;2023-02-19T15:27:48;8.40;;;2.88;;
21036;SDS011;10677;50.942;4.028;2023-02-19T15:30:21;5.03;;;2.53;;
21036;SDS011;10677;50.942;4.028;2023-02-19T15:32:55;6.40;;;2.55;;
21036;SDS011;10677;50.942;4.028;2023-02-19T15:35:23;9.07;;;3.20;;
21036;SDS011;10677;50.942;4.028;2023-02-19T15:37:52;6.25;;;2.70;;
21036;SDS011;10677;50.942;4.028;2023-02-19T15:40:27;7.65;;;3.47;;
21036;SDS011;10677;50.942;4.028;2023-02-19T15:42:55;8.48;;;3.15;;
21036;SDS011;10677;50.942;4.028;2023-02-19T15:45:23;19.58;;;4.03;;
21036;SDS011;10677;50.942;4.028;2023-02-19T15:47:55;8.65;;;3.40;;
21036;SDS011;10677;50.942;4.028;2023-02-19T15:50:32;9.10;;;3.55;;
21036;SDS011;10677;50.942;4.028;2023-02-19T15:53:07;7.18;;;3.92;;
21036;SDS011;10677;50.942;4.028;2023-02-19T15:55:46;9.80;;;3.63;;
21036;SDS011;10677;50.942;4.028;2023-02-19T15:58:30;10.73;;;3.65;;
21036;SDS011;10677;50.942;4.028;2023-02-19T16:03:52;7.38;;;3.25;;
21036;SDS011;10677;50.942;4.028;2023-02-19T16:06:19;8.50;;;3.58;;
21036;SDS011;10677;50.942;4.028;2023-02-19T16:16:59;6.90;;;3.80;;
21036;SDS011;10677;50.942;4.028;2023-02-19T16:22:12;10.38;;;3.78;;
21036;SDS011;10677;50.942;4.028;2023-02-19T16:24:42;7.80;;;4.10;;
21036;SDS011;10677;50.942;4.028;2023-02-19T16:27:11;10.55;;;3.90;;
21036;SDS011;10677;50.942;4.028;2023-02-19T16:29:52;5.85;;;3.70;;
21036;SDS011;10677;50.942;4.028;2023-02-19T16:32:18;6.80;;;3.25;;
21036;SDS011;10677;50.942;4.028;2023-02-19T16:34:48;10.73;;;4.03;;
21036;SDS011;10677;50.942;4.028;2023-02-19T16:37:29;15.70;;;4.25;;
21036;SDS011;10677;50.942;4.028;2023-02-19T16:43:03;7.30;;;3.17;;
21036;SDS011;10677;50.942;4.028;2023-02-19T16:45:47;8.82;;;3.33;;
21036;SDS011;10677;50.942;4.028;2023-02-19T16:48:13;12.02;;;4.10;;
21036;SDS011;10677;50.942;4.028;2023-02-19T16:50:49;7.95;;;3.25;;
21036;SDS011;10677;50.942;4.028;2023-02-19T16:53:20;7.70;;;3.17;;
21036;SDS011;10677;50.942;4.028;2023-02-19T16:55:49;8.95;;;3.30;;
21036;SDS011;10677;50.942;4.028;2023-02-19T16:58:15;8.35;;;3.42;;
21036;SDS011;10677;50.942;4.028;2023-02-19T17:00:41;11.07;;;3.92;;
21036;SDS011;10677;50.942;4.028;2023-02-19T17:03:08;9.05;;;4.15;;
21036;SDS011;10677;50.942;4.028;2023-02-19T17:05:40;10.98;;;3.85;;
21036;SDS011;10677;50.942;4.028;2023-02-19T17:10:56;9.57;;;3.75;;
21036;SDS011;10677;50.942;4.028;2023-02-19T17:13:23;7.50;;;3.78;;
21036;SDS011;10677;50.942;4.028;2023-02-19T17:15:50;10.68;;;3.67;;
21036;SDS011;10677;50.942;4.028;2023-02-19T17:18:15;9.40;;;4.10;;
21036;SDS011;10677;50.942;4.028;2023-02-19T17:20:42;9.13;;;3.72;;
21036;SDS011;10677;50.942;4.028;2023-02-19T17:23:15;8.75;;;4.10;;
21036;SDS011;10677;50.942;4.028;2023-02-19T17:25:41;7.70;;;4.13;;
21036;SDS011;10677;50.942;4.028;2023-02-19T17:28:06;10.80;;;4.03;;
21036;SDS011;10677;50.942;4.028;2023-02-19T17:30:32;11.93;;;4.63;;